createdAt,value
2022-10-22T00:14:18.390Z,13.1
2022-10-22T00:24:18.399Z,13.3
2022-10-22T00:34:18.434Z,13.2
2022-10-22T00:44:18.446Z,13.2
2022-10-22T00:54:18.486Z,13
2022-10-22T01:04:18.472Z,13.4
2022-10-22T01:14:18.534Z,13.3
2022-10-22T01:24:18.528Z,13.2
2022-10-22T01:34:18.557Z,13
2022-10-22T01:44:18.569Z,13
2022-10-22T02:04:18.601Z,13.4
2022-10-22T02:14:18.597Z,13
2022-10-22T02:34:18.688Z,12.8
2022-10-22T02:44:18.650Z,12.8
2022-10-22T02:54:18.710Z,12.8
2022-10-22T03:04:18.708Z,12.6
2022-10-22T03:14:18.752Z,12.6
2022-10-22T03:24:18.727Z,12.3
2022-10-22T03:34:18.782Z,12.7
2022-10-22T03:44:18.773Z,12.7
2022-10-22T03:54:18.807Z,13
2022-10-22T04:04:18.790Z,12.6
2022-10-22T04:14:18.849Z,12.5
2022-10-22T04:24:18.833Z,12.7
2022-10-22T04:34:18.876Z,12.4
2022-10-22T04:44:18.897Z,12.5
2022-10-22T04:54:18.903Z,12.4
2022-10-22T05:04:18.893Z,12.5
2022-10-22T05:14:18.975Z,12.4
2022-10-22T05:24:18.950Z,12.4
2022-10-22T05:34:18.984Z,12.2
2022-10-22T05:44:19.002Z,12.1
2022-10-22T05:54:19.037Z,11.2
2022-10-22T06:04:19.046Z,11.8
2022-10-22T06:14:19.074Z,12.2
2022-10-22T06:24:19.067Z,12.4
2022-10-22T06:34:19.168Z,12.8
2022-10-22T06:44:19.109Z,13
2022-10-22T06:54:19.158Z,13.2
2022-10-22T07:04:19.131Z,13.1
2022-10-22T07:14:19.193Z,13
2022-10-22T07:24:19.177Z,12.8
2022-10-22T07:44:19.217Z,14.2
2022-10-22T07:54:19.268Z,13.8
2022-10-22T08:04:19.247Z,14.1
2022-10-22T08:14:19.282Z,14.1
2022-10-22T08:24:19.274Z,13.8
2022-10-22T08:34:19.328Z,13.9
2022-10-22T08:44:19.311Z,14.2
2022-10-22T08:54:19.341Z,14.8
2022-10-22T09:04:19.334Z,13.2
2022-10-22T09:14:19.385Z,12.8
2022-10-22T09:24:19.365Z,12.8
2022-10-22T09:34:19.441Z,12.8
2022-10-22T09:44:19.434Z,13.1
2022-10-22T09:54:19.447Z,13.1
2022-10-22T10:04:19.507Z,13
2022-10-22T10:14:19.498Z,13.4
2022-10-22T10:24:19.489Z,13.5
2022-10-22T10:34:19.539Z,13.8
2022-10-22T10:44:19.497Z,14.5
2022-10-22T11:04:19.595Z,14
2022-10-22T11:14:19.561Z,13.6
2022-10-22T11:24:19.601Z,13.5
2022-10-22T11:34:35.047Z,14
2022-10-22T11:44:19.654Z,13.9
2022-10-22T11:54:19.855Z,13.9
2022-10-22T12:04:19.753Z,13.9
2022-10-22T12:14:19.671Z,12.9
2022-10-22T12:24:19.703Z,12.7
2022-10-22T12:44:19.726Z,14.5
2022-10-22T12:54:19.742Z,14.3
2022-10-22T13:04:19.768Z,13.7
2022-10-22T13:14:19.769Z,13.3
2022-10-22T13:24:19.791Z,13.1
2022-10-22T13:54:19.866Z,13.2
2022-10-22T14:04:19.849Z,13.4
2022-10-22T14:24:19.916Z,13.6
2022-10-22T14:44:19.924Z,13
2022-10-22T15:14:20.002Z,13
2022-10-22T15:24:19.975Z,12.7
2022-10-22T15:34:20.089Z,12.4
2022-10-22T15:44:20.009Z,12.2
2022-10-22T15:54:20.039Z,12.8
2022-10-22T16:04:20.054Z,12.8
2022-10-22T16:14:20.101Z,12.4
2022-10-22T16:24:20.056Z,11.7
2022-10-22T16:34:20.110Z,11.8
2022-10-22T16:44:20.123Z,11.3
2022-10-22T17:04:20.187Z,10.7
2022-10-22T17:24:20.210Z,11.1
2022-10-22T17:34:20.210Z,10.8
2022-10-22T17:44:20.227Z,10.7
2022-10-22T17:54:20.250Z,10.6
2022-10-22T18:04:20.281Z,10.5
2022-10-22T18:14:20.290Z,10.5
2022-10-22T18:24:20.299Z,10.3
2022-10-22T18:34:23.101Z,10.5
2022-10-22T18:44:20.354Z,11
2022-10-22T18:54:24.453Z,10.8
2022-10-22T19:04:20.382Z,11.3
2022-10-22T19:14:20.368Z,11.4
2022-10-22T19:24:20.414Z,10.7
2022-10-22T19:34:20.401Z,10.8
2022-10-22T19:44:20.448Z,11.3
2022-10-22T19:54:20.615Z,11.7
2022-10-22T20:04:20.484Z,10.9
2022-10-22T20:14:20.471Z,11.8
2022-10-22T20:24:20.527Z,11.8
2022-10-22T20:34:20.531Z,11.7
2022-10-22T20:44:20.553Z,11.4
2022-10-22T21:04:20.585Z,11.2
2022-10-22T21:14:20.590Z,11.6
2022-10-22T21:24:20.608Z,10.9
2022-10-22T21:34:20.640Z,10.9
2022-10-22T21:44:20.669Z,10.7
2022-10-22T21:54:20.647Z,10.6
2022-10-22T22:04:20.718Z,10.6
2022-10-22T22:14:20.701Z,10.6
2022-10-22T22:24:20.742Z,10.6
2022-10-22T22:44:20.777Z,10.6
2022-10-22T22:54:20.762Z,10.6
2022-10-22T23:04:20.821Z,10.7
2022-10-22T23:14:20.805Z,10.7
2022-10-22T23:24:20.844Z,10.8
2022-10-22T23:34:20.910Z,10.7
2022-10-22T23:44:20.897Z,10.8
